Terminal Aerodrome Forecast
Issued by NWS Knoxville/Tri Cities, TN

Home | Current Version | Previous Version | Text Only | Print | Product List | Glossary On
Versions: 1 2 3 4 5 6 7 8 9 10 11 12 13 14 15 16 17 18 19 20 21 22 23 24 25 26 27 28 29 30
000
FTUS44 KMRX 021720
TAFCHA
TAF
KCHA 021720Z 0218/0318 01010KT P6SM OVC025
     FM030600 VRB03KT 4SM -RA BR BKN007 OVC015
     FM031400 15004KT 2SM -RA BR OVC005
     FM031600 17005KT 4SM -RA BR OVC007=

USA.gov is the U.S. government's official web portal to all federal, state and local government web resources and services.